Time;durP1;ratioP1;P1;durP2;ratioP2;P2;SDS_P1;SDS_P2;PMS_P1;PMS_P2;Temp;Humidity;BMP_temperature;BMP_pressure;BME280_temperature;BME280_humidity;BME280_pressure;Samples;Min_cycle;Max_cycle;Signal;HPM_P1;HPM_P2
2024/01/05 00:01:43;;;;;;;14.25;8.07;;;3.60;99.90;;;;;;5079860;28;20471;-65
2024/01/05 00:04:09;;;;;;;19.13;9.80;;;3.60;99.90;;;;;;5115558;27;20053;-65
2024/01/05 00:06:38;;;;;;;16.55;8.98;;;3.60;99.90;;;;;;5064561;28;20037;-65
2024/01/05 00:09:04;;;;;;;13.63;8.70;;;3.60;99.90;;;;;;5064074;28;20040;-65
2024/01/05 00:11:30;;;;;;;19.42;8.88;;;3.60;99.90;;;;;;5079522;28;20040;-65
2024/01/05 00:13:56;;;;;;;16.40;9.10;;;3.50;99.90;;;;;;5081830;28;20044;-66
2024/01/05 00:16:23;;;;;;;14.77;8.32;;;3.60;99.90;;;;;;5079919;28;20032;-65
2024/01/05 00:18:49;;;;;;;18.48;9.43;;;3.60;99.90;;;;;;5078327;28;20036;-65
2024/01/05 00:21:25;;;;;;;16.05;8.80;;;3.50;99.90;;;;;;5086351;28;20040;-65
2024/01/05 00:23:53;;;;;;;17.42;9.90;;;3.50;99.90;;;;;;5078702;28;20113;-65
2024/01/05 00:26:19;;;;;;;17.63;9.98;;;3.50;99.90;;;;;;5110217;27;20044;-65
2024/01/05 00:28:46;;;;;;;16.63;10.38;;;3.50;99.90;;;;;;5082320;28;20520;-65
2024/01/05 00:31:13;;;;;;;23.90;12.63;;;4.20;99.90;;;;;;5083750;28;20058;-65
2024/01/05 00:33:39;;;;;;;19.42;10.90;;;3.50;99.90;;;;;;5084345;28;20041;-65
2024/01/05 00:36:06;;;;;;;21.88;11.02;;;3.50;99.90;;;;;;5077892;28;20510;-65
2024/01/05 00:38:32;;;;;;;26.65;12.07;;;3.50;99.90;;;;;;5081628;28;20797;-65
2024/01/05 00:40:58;;;;;;;22.95;12.43;;;3.50;99.90;;;;;;5076020;28;20048;-65
2024/01/05 00:43:23;;;;;;;18.98;10.70;;;3.50;99.90;;;;;;5079902;28;20414;-65
2024/01/05 00:45:49;;;;;;;18.38;10.50;;;3.50;99.90;;;;;;5082965;28;20097;-65
2024/01/05 00:48:15;;;;;;;21.42;10.10;;;3.40;99.90;;;;;;5074162;28;20567;-65
2024/01/05 00:50:41;;;;;;;19.35;9.73;;;3.50;99.90;;;;;;5084371;28;20044;-65
2024/01/05 00:53:06;;;;;;;19.27;9.77;;;3.50;99.90;;;;;;5078491;28;20037;-65
2024/01/05 00:55:32;;;;;;;18.85;9.23;;;3.40;99.90;;;;;;5077508;28;20080;-65
2024/01/05 00:57:58;;;;;;;14.55;8.60;;;3.50;99.90;;;;;;5081428;28;20040;-65
2024/01/05 01:00:24;;;;;;;14.38;7.50;;;3.50;99.90;;;;;;5075747;28;20128;-65
2024/01/05 01:02:51;;;;;;;15.32;7.35;;;3.40;99.90;;;;;;5080808;28;20039;-65
2024/01/05 01:05:17;;;;;;;20.23;8.73;;;3.50;99.90;;;;;;5081402;28;20031;-65
2024/01/05 01:07:43;;;;;;;14.35;7.82;;;3.40;99.90;;;;;;5065849;28;20051;-65
2024/01/05 01:10:09;;;;;;;13.18;7.43;;;3.40;99.90;;;;;;5112651;27;20044;-65
2024/01/05 01:12:34;;;;;;;18.05;8.27;;;3.40;99.90;;;;;;5077105;28;20785;-65
2024/01/05 01:15:00;;;;;;;17.65;7.90;;;3.40;99.90;;;;;;5077686;28;20562;-65
2024/01/05 01:17:26;;;;;;;15.38;8.15;;;3.40;99.90;;;;;;5081993;28;20048;-65
2024/01/05 01:19:51;;;;;;;16.15;7.05;;;3.40;99.90;;;;;;5113407;27;20028;-65
2024/01/05 01:22:17;;;;;;;19.10;7.38;;;3.50;99.90;;;;;;5077017;28;20040;-65
2024/01/05 01:24:43;;;;;;;17.65;7.72;;;3.40;99.90;;;;;;5086632;28;20024;-65
2024/01/05 01:27:09;;;;;;;14.98;8.25;;;3.30;99.90;;;;;;5079616;28;20131;-65
2024/01/05 01:29:34;;;;;;;20.15;8.43;;;3.40;99.90;;;;;;5078172;28;20188;-65
2024/01/05 01:32:00;;;;;;;21.65;8.68;;;3.40;99.90;;;;;;5078055;28;20118;-65
2024/01/05 01:34:26;;;;;;;21.98;9.07;;;3.40;99.90;;;;;;5097614;27;20039;-65
2024/01/05 01:36:53;;;;;;;13.55;7.82;;;3.40;99.90;;;;;;5087046;28;20028;-65
2024/01/05 01:39:18;;;;;;;14.35;8.68;;;3.40;99.90;;;;;;5079497;28;20048;-65
2024/01/05 01:41:44;;;;;;;14.07;8.68;;;3.40;99.90;;;;;;5072271;28;20040;-65
2024/01/05 01:44:10;;;;;;;17.30;8.57;;;3.50;99.90;;;;;;5072834;28;21120;-65
2024/01/05 01:46:36;;;;;;;14.85;8.57;;;3.40;99.90;;;;;;5072793;28;20090;-65
2024/01/05 01:49:04;;;;;;;15.43;8.65;;;3.50;99.90;;;;;;5082513;28;20386;-65
2024/01/05 01:51:31;;;;;;;20.17;9.48;;;3.40;99.90;;;;;;5077902;28;20135;-65
2024/01/05 01:54:03;;;;;;;18.65;10.77;;;3.40;99.90;;;;;;5082608;28;20036;-65
2024/01/05 01:56:31;;;;;;;14.55;8.35;;;3.50;99.90;;;;;;5076109;28;20047;-65
2024/01/05 01:58:57;;;;;;;18.77;10.52;;;3.50;99.90;;;;;;5088798;28;21097;-65
2024/01/05 02:01:23;;;;;;;18.65;9.52;;;3.50;99.90;;;;;;5078814;28;20542;-65
2024/01/05 02:03:50;;;;;;;14.88;9.00;;;3.50;99.90;;;;;;5072857;28;20346;-65
2024/01/05 02:06:15;;;;;;;19.90;9.88;;;3.50;99.90;;;;;;5082053;28;20090;-65
2024/01/05 02:08:43;;;;;;;16.50;10.35;;;3.50;99.90;;;;;;5076578;28;20068;-65
2024/01/05 02:11:09;;;;;;;20.27;9.88;;;3.50;99.90;;;;;;5077120;28;20051;-65
2024/01/05 02:13:35;;;;;;;18.58;10.35;;;3.40;99.90;;;;;;5081763;28;20035;-65
2024/01/05 02:16:00;;;;;;;15.48;10.50;;;3.50;99.90;;;;;;5075092;28;20048;-65
2024/01/05 02:18:26;;;;;;;14.93;9.85;;;3.50;99.90;;;;;;5078079;28;20545;-65
2024/01/05 02:20:52;;;;;;;14.85;9.55;;;3.50;99.90;;;;;;5076334;28;20379;-65
2024/01/05 02:23:25;;;;;;;17.35;9.90;;;3.50;99.90;;;;;;5081731;28;20064;-65
2024/01/05 02:25:52;;;;;;;15.02;10.35;;;3.50;99.90;;;;;;5078483;28;20081;-65
2024/01/05 02:28:19;;;;;;;18.63;10.55;;;3.50;99.90;;;;;;5075360;28;20048;-65
2024/01/05 02:30:45;;;;;;;14.55;9.93;;;3.50;99.90;;;;;;5078497;28;20032;-65
2024/01/05 02:33:10;;;;;;;17.05;11.00;;;3.50;99.90;;;;;;5081697;28;20035;-65
2024/01/05 02:35:36;;;;;;;16.67;9.98;;;3.50;99.90;;;;;;5063616;28;20982;-65
2024/01/05 02:38:02;;;;;;;17.88;9.60;;;3.50;99.90;;;;;;5078011;28;20500;-65
2024/01/05 02:40:28;;;;;;;31.55;11.25;;;3.50;99.90;;;;;;5080505;28;20032;-65
2024/01/05 02:42:54;;;;;;;18.23;10.00;;;3.50;99.90;;;;;;5077592;28;20132;-65
2024/01/05 02:45:20;;;;;;;18.65;10.48;;;3.50;99.90;;;;;;5078861;28;20051;-66
2024/01/05 02:47:53;;;;;;;14.27;9.85;;;3.50;99.90;;;;;;5077162;28;20071;-65
2024/01/05 02:50:20;;;;;;;16.73;9.18;;;3.50;99.90;;;;;;5111991;27;20123;-65
2024/01/05 02:52:46;;;;;;;18.23;10.15;;;3.50;99.90;;;;;;5065172;28;20138;-65
2024/01/05 02:55:13;;;;;;;18.27;10.50;;;3.50;99.90;;;;;;5071917;28;20043;-65
2024/01/05 02:57:39;;;;;;;17.45;10.27;;;3.50;99.90;;;;;;5079626;28;20040;-65
2024/01/05 03:00:05;;;;;;;16.02;9.98;;;3.60;99.90;;;;;;5076434;28;20044;-65
2024/01/05 03:02:31;;;;;;;18.92;10.25;;;3.50;99.90;;;;;;5093789;28;20044;-65
2024/01/05 03:04:58;;;;;;;13.75;9.32;;;3.50;99.90;;;;;;5079056;28;20118;-65
2024/01/05 03:07:24;;;;;;;14.18;9.75;;;3.50;99.90;;;;;;5080461;28;20081;-66
2024/01/05 03:09:50;;;;;;;18.92;11.10;;;3.60;99.90;;;;;;5081418;28;20072;-66
2024/01/05 03:12:17;;;;;;;18.23;9.63;;;3.60;99.90;;;;;;5077556;28;20052;-65
2024/01/05 03:14:42;;;;;;;15.38;8.20;;;3.50;99.90;;;;;;5080432;28;20059;-65
2024/01/05 03:17:08;;;;;;;13.15;8.57;;;3.50;99.90;;;;;;5086242;28;20036;-65
2024/01/05 03:19:34;;;;;;;13.07;8.98;;;3.50;99.90;;;;;;5080834;28;20037;-65
2024/01/05 03:22:00;;;;;;;13.60;9.35;;;3.50;99.90;;;;;;5084377;28;20043;-66
2024/01/05 03:24:26;;;;;;;14.20;8.90;;;3.50;99.90;;;;;;5083563;28;20043;-66
2024/01/05 03:26:51;;;;;;;16.13;9.80;;;3.50;99.90;;;;;;5082392;28;20483;-65
2024/01/05 03:29:17;;;;;;;13.35;8.52;;;3.50;99.90;;;;;;5081684;28;20064;-65
2024/01/05 03:31:43;;;;;;;11.82;8.65;;;3.50;99.90;;;;;;5083112;28;20036;-65
2024/01/05 03:34:10;;;;;;;14.00;8.75;;;3.50;99.90;;;;;;5086125;28;20054;-65
2024/01/05 03:36:36;;;;;;;10.45;8.20;;;3.60;99.90;;;;;;5084668;28;20045;-65
2024/01/05 03:39:02;;;;;;;10.48;8.27;;;3.50;99.90;;;;;;5081309;28;20046;-65
2024/01/05 03:41:28;;;;;;;12.85;8.80;;;3.60;99.90;;;;;;5078572;28;20640;-65
2024/01/05 03:43:54;;;;;;;14.55;9.57;;;3.60;99.90;;;;;;5083292;28;20055;-65
2024/01/05 03:46:20;;;;;;;13.70;9.40;;;3.60;99.90;;;;;;5082207;28;20401;-65
2024/01/05 03:48:45;;;;;;;12.88;8.52;;;3.60;99.90;;;;;;5081352;28;20051;-65
2024/01/05 03:51:11;;;;;;;15.57;9.10;;;3.60;99.90;;;;;;5070648;28;20737;-65
2024/01/05 03:53:37;;;;;;;12.25;8.60;;;3.60;99.90;;;;;;5079940;28;20048;-65
2024/01/05 03:56:03;;;;;;;15.85;8.85;;;3.60;99.90;;;;;;5087213;28;20043;-65
2024/01/05 03:58:29;;;;;;;12.75;9.35;;;3.70;99.90;;;;;;5083330;28;20040;-65
2024/01/05 04:00:55;;;;;;;14.82;9.05;;;3.70;99.90;;;;;;5083700;28;20036;-65
2024/01/05 04:03:22;;;;;;;14.27;9.13;;;3.60;99.90;;;;;;5076573;28;20049;-65
2024/01/05 04:05:48;;;;;;;13.27;8.57;;;3.70;99.90;;;;;;5079192;28;20142;-65
2024/01/05 04:08:13;;;;;;;15.50;9.65;;;3.70;99.90;;;;;;5078995;28;20068;-65
2024/01/05 04:10:39;;;;;;;13.85;9.20;;;3.70;99.90;;;;;;5110606;27;20453;-65
2024/01/05 04:13:05;;;;;;;12.65;9.20;;;3.70;99.90;;;;;;5084440;28;20064;-65
2024/01/05 04:15:38;;;;;;;13.73;9.52;;;3.70;99.90;;;;;;5086099;28;20042;-65
2024/01/05 04:18:05;;;;;;;15.70;8.50;;;3.70;99.90;;;;;;5080508;28;20047;-65
2024/01/05 04:20:31;;;;;;;15.00;8.85;;;3.70;99.90;;;;;;5082278;28;21948;-65
2024/01/05 04:22:57;;;;;;;15.48;9.40;;;3.70;99.90;;;;;;5080618;28;20052;-65
2024/01/05 04:25:23;;;;;;;16.00;9.93;;;3.80;99.90;;;;;;5116266;27;20047;-65
2024/01/05 04:27:48;;;;;;;13.35;9.38;;;3.70;99.90;;;;;;5077545;28;20474;-65
2024/01/05 04:30:15;;;;;;;14.13;9.60;;;3.70;99.90;;;;;;5082942;28;20116;-65
2024/01/05 04:32:43;;;;;;;15.85;9.90;;;3.80;99.90;;;;;;5077842;28;20119;-65
2024/01/05 04:35:09;;;;;;;14.75;10.10;;;3.80;99.90;;;;;;5086813;28;20050;-65
2024/01/05 04:37:34;;;;;;;17.38;11.82;;;3.80;99.90;;;;;;5080570;28;20040;-65
2024/01/05 04:40:00;;;;;;;16.88;11.88;;;3.70;99.90;;;;;;5080664;28;20044;-65
2024/01/05 04:42:26;;;;;;;14.35;10.00;;;3.70;99.90;;;;;;5069701;28;20070;-65
2024/01/05 04:44:53;;;;;;;16.17;10.63;;;3.80;99.90;;;;;;5080492;28;20094;-65
2024/01/05 04:47:18;;;;;;;14.02;10.50;;;3.80;99.90;;;;;;5084596;28;20048;-65
2024/01/05 04:49:44;;;;;;;15.15;11.32;;;3.80;99.90;;;;;;5078589;28;20056;-65
2024/01/05 04:52:10;;;;;;;16.05;11.07;;;3.80;99.90;;;;;;5083726;28;20724;-65
2024/01/05 04:54:36;;;;;;;16.30;11.60;;;3.80;99.90;;;;;;5083341;28;20033;-65
2024/01/05 04:57:02;;;;;;;17.77;12.40;;;3.80;99.90;;;;;;5082096;28;20483;-65
2024/01/05 04:59:28;;;;;;;17.77;11.63;;;3.80;99.90;;;;;;5081288;28;20046;-65
2024/01/05 05:01:54;;;;;;;16.15;12.27;;;3.80;99.90;;;;;;5075487;28;20052;-65
2024/01/05 05:04:19;;;;;;;16.25;11.32;;;3.80;99.90;;;;;;5085255;28;20048;-65
2024/01/05 05:06:45;;;;;;;16.67;13.07;;;3.80;99.90;;;;;;5079544;28;20047;-65
2024/01/05 05:09:11;;;;;;;17.92;12.75;;;3.80;99.90;;;;;;5079242;28;20118;-65
2024/01/05 05:11:41;;;;;;;18.73;13.07;;;3.90;99.90;;;;;;5108502;27;20040;-65
2024/01/05 05:14:07;;;;;;;18.00;12.52;;;3.90;99.90;;;;;;5081433;28;20159;-66
2024/01/05 05:16:33;;;;;;;19.35;13.32;;;3.90;99.90;;;;;;5086761;28;20119;-65
2024/01/05 05:18:59;;;;;;;18.35;12.60;;;3.80;99.90;;;;;;5080150;28;20043;-65
2024/01/05 05:21:26;;;;;;;18.92;13.00;;;3.90;99.90;;;;;;5080519;28;20056;-65
2024/01/05 05:23:51;;;;;;;23.42;14.25;;;3.90;99.90;;;;;;5081342;28;20044;-65
2024/01/05 05:26:17;;;;;;;19.00;13.20;;;3.90;99.90;;;;;;5083129;28;20066;-65
2024/01/05 05:28:43;;;;;;;21.13;13.70;;;3.90;99.90;;;;;;5084711;28;20036;-65
2024/01/05 05:31:09;;;;;;;20.73;13.55;;;3.90;99.90;;;;;;5083675;28;20147;-65
2024/01/05 05:33:35;;;;;;;18.52;14.18;;;3.90;99.90;;;;;;5083041;28;20475;-65
2024/01/05 05:36:01;;;;;;;18.58;13.95;;;3.90;99.90;;;;;;5068862;28;20043;-65
2024/01/05 05:38:27;;;;;;;18.98;14.43;;;4.00;99.90;;;;;;5070491;28;20222;-65
2024/01/05 05:40:52;;;;;;;18.95;14.25;;;4.00;99.90;;;;;;5070032;28;20040;-65
2024/01/05 05:43:18;;;;;;;18.60;13.45;;;4.00;99.90;;;;;;5067622;28;20439;-65
2024/01/05 05:45:44;;;;;;;21.08;14.30;;;3.90;99.90;;;;;;5070483;28;21320;-65
2024/01/05 05:48:12;;;;;;;20.75;13.48;;;4.00;99.90;;;;;;5077467;28;20049;-65
2024/01/05 05:50:38;;;;;;;25.02;14.20;;;4.00;99.90;;;;;;5068433;28;20041;-65
2024/01/05 05:53:03;;;;;;;18.75;13.90;;;4.10;99.90;;;;;;5071209;28;20051;-65
2024/01/05 05:55:29;;;;;;;19.40;14.05;;;4.10;99.90;;;;;;5071670;28;20047;-65
2024/01/05 05:57:57;;;;;;;20.00;14.57;;;4.10;99.90;;;;;;5069991;28;20048;-65
2024/01/05 06:00:24;;;;;;;23.95;13.82;;;4.20;99.90;;;;;;5074122;28;20040;-65
2024/01/05 06:02:49;;;;;;;20.58;14.05;;;4.10;99.90;;;;;;5078458;28;20052;-65
2024/01/05 06:05:15;;;;;;;18.17;14.07;;;4.10;99.90;;;;;;5073482;28;20055;-65
2024/01/05 06:07:41;;;;;;;23.98;15.32;;;4.10;99.90;;;;;;5076843;28;20557;-65
2024/01/05 06:10:07;;;;;;;19.95;14.65;;;4.10;99.90;;;;;;5076693;28;20482;-65
2024/01/05 06:12:33;;;;;;;22.08;14.98;;;4.10;99.90;;;;;;5107265;27;20136;-65
2024/01/05 06:14:59;;;;;;;22.30;14.23;;;4.20;99.90;;;;;;5082979;28;20421;-65
2024/01/05 06:17:25;;;;;;;19.60;13.90;;;4.20;99.90;;;;;;5080714;28;20631;-65
2024/01/05 06:19:51;;;;;;;20.17;14.45;;;4.20;99.90;;;;;;5080373;28;20040;-65
2024/01/05 06:22:16;;;;;;;18.33;14.13;;;4.30;99.90;;;;;;5076942;28;20093;-65
2024/01/05 06:24:44;;;;;;;21.33;15.27;;;4.30;99.90;;;;;;5082938;28;20127;-66
2024/01/05 06:27:11;;;;;;;22.58;15.38;;;4.20;99.90;;;;;;5077426;28;20059;-65
2024/01/05 06:29:37;;;;;;;23.63;15.30;;;4.30;99.90;;;;;;5078330;28;20059;-65
2024/01/05 06:32:03;;;;;;;18.85;13.45;;;4.60;99.90;;;;;;5078561;28;20055;-65
2024/01/05 06:34:29;;;;;;;21.08;15.00;;;4.30;99.90;;;;;;5077165;28;20024;-65
2024/01/05 06:36:55;;;;;;;21.65;14.40;;;4.40;99.90;;;;;;5075786;28;20075;-65
2024/01/05 06:39:21;;;;;;;21.45;15.07;;;4.40;99.90;;;;;;5071773;28;20074;-65
2024/01/05 06:41:46;;;;;;;19.23;14.15;;;4.30;99.90;;;;;;5079371;28;20119;-65
2024/01/05 06:44:12;;;;;;;24.48;14.45;;;4.30;99.90;;;;;;5074149;28;20040;-65
2024/01/05 06:46:38;;;;;;;19.88;14.40;;;4.40;99.90;;;;;;5073479;28;20097;-65
2024/01/05 06:49:03;;;;;;;20.60;14.25;;;4.40;99.90;;;;;;5073350;28;20684;-65
2024/01/05 06:51:35;;;;;;;22.17;14.95;;;4.40;99.90;;;;;;5076669;28;20055;-65
2024/01/05 06:54:01;;;;;;;24.70;14.90;;;4.40;99.90;;;;;;5079226;28;20126;-65
2024/01/05 06:56:31;;;;;;;26.88;16.25;;;4.40;99.90;;;;;;5075858;28;20673;-65
2024/01/05 06:58:58;;;;;;;21.98;15.82;;;4.40;99.90;;;;;;5082196;28;20687;-65
2024/01/05 07:01:23;;;;;;;27.20;16.05;;;4.40;99.90;;;;;;5059191;28;20060;-65
2024/01/05 07:03:49;;;;;;;25.30;16.52;;;4.50;99.90;;;;;;5080307;28;20522;-65
2024/01/05 07:06:16;;;;;;;23.30;15.02;;;4.50;99.90;;;;;;5077439;28;20084;-65
2024/01/05 07:08:41;;;;;;;24.55;15.27;;;4.40;99.90;;;;;;5111963;27;20069;-65
2024/01/05 07:11:07;;;;;;;24.05;14.75;;;4.50;99.90;;;;;;5078183;28;20404;-65
2024/01/05 07:13:33;;;;;;;23.67;15.98;;;4.50;99.90;;;;;;5079090;28;20624;-65
2024/01/05 07:15:59;;;;;;;22.33;16.25;;;4.50;99.90;;;;;;5077005;28;20032;-65
2024/01/05 07:18:24;;;;;;;25.95;16.33;;;4.50;99.90;;;;;;5079193;28;20049;-65
2024/01/05 07:20:50;;;;;;;23.30;16.13;;;4.50;99.90;;;;;;5077984;28;20035;-65
2024/01/05 07:23:16;;;;;;;27.55;16.23;;;4.60;99.90;;;;;;5079089;28;20040;-65
2024/01/05 07:25:42;;;;;;;23.58;17.60;;;4.60;99.90;;;;;;5078425;28;20048;-65
2024/01/05 07:28:08;;;;;;;26.38;17.27;;;4.60;99.90;;;;;;5080980;28;20040;-65
2024/01/05 07:30:34;;;;;;;29.15;16.95;;;4.60;99.90;;;;;;5078814;28;20036;-65
2024/01/05 07:32:59;;;;;;;31.13;18.10;;;4.60;99.90;;;;;;5077326;28;20051;-65
2024/01/05 07:35:25;;;;;;;28.83;18.05;;;4.60;99.90;;;;;;5073961;28;20454;-65
2024/01/05 07:37:50;;;;;;;32.63;19.42;;;4.60;99.90;;;;;;5076361;28;20508;-65
2024/01/05 07:40:16;;;;;;;32.00;19.70;;;4.70;99.90;;;;;;5078441;28;20045;-65
2024/01/05 07:42:42;;;;;;;31.58;19.02;;;4.70;99.90;;;;;;5076298;28;20067;-65
2024/01/05 07:45:08;;;;;;;30.80;19.67;;;4.70;99.90;;;;;;5080622;28;20037;-65
2024/01/05 07:47:34;;;;;;;31.70;18.98;;;4.70;99.90;;;;;;5077014;28;20029;-65
2024/01/05 07:49:59;;;;;;;32.22;19.35;;;4.70;99.90;;;;;;5075248;28;20047;-65
2024/01/05 07:52:26;;;;;;;30.65;19.10;;;4.70;99.90;;;;;;5076488;28;20032;-65
2024/01/05 07:54:52;;;;;;;31.60;19.40;;;4.80;99.90;;;;;;5079599;28;20036;-65
2024/01/05 07:57:18;;;;;;;31.80;19.95;;;4.80;99.90;;;;;;5079515;28;20036;-65
2024/01/05 07:59:43;;;;;;;33.63;20.23;;;4.80;99.90;;;;;;5078119;28;20113;-65
2024/01/05 08:02:11;;;;;;;36.22;20.33;;;4.90;99.90;;;;;;5079070;28;20047;-65
2024/01/05 08:04:37;;;;;;;32.20;20.23;;;4.90;99.90;;;;;;5075548;28;20043;-64
2024/01/05 08:07:02;;;;;;;35.75;20.92;;;5.00;99.90;;;;;;5079909;28;20040;-65
2024/01/05 08:09:28;;;;;;;40.05;20.35;;;5.10;99.90;;;;;;5078397;28;20102;-65
2024/01/05 08:11:54;;;;;;;32.33;20.33;;;5.10;99.90;;;;;;5080037;28;20056;-64
2024/01/05 08:14:19;;;;;;;33.42;20.42;;;5.10;99.90;;;;;;5081512;28;20032;-65
2024/01/05 08:16:45;;;;;;;29.17;20.38;;;5.20;99.90;;;;;;5080970;28;20036;-65
2024/01/05 08:19:10;;;;;;;33.42;20.60;;;5.20;99.90;;;;;;5083940;28;20193;-65
2024/01/05 08:21:36;;;;;;;39.42;21.58;;;5.20;99.90;;;;;;5080704;28;20060;-65
2024/01/05 08:24:02;;;;;;;39.33;21.08;;;5.30;99.90;;;;;;5081368;28;20989;-65
2024/01/05 08:26:27;;;;;;;29.40;17.17;;;5.30;99.90;;;;;;5083140;28;20080;-65
2024/01/05 08:28:53;;;;;;;35.40;19.40;;;5.50;99.90;;;;;;5087517;28;20051;-65
2024/01/05 08:31:19;;;;;;;33.15;19.73;;;5.50;99.90;;;;;;5082548;28;20020;-65
2024/01/05 08:33:44;;;;;;;28.80;17.90;;;5.50;99.90;;;;;;5077413;28;20051;-65
2024/01/05 08:36:10;;;;;;;32.00;19.33;;;5.50;99.90;;;;;;5112466;27;20036;-65
2024/01/05 08:38:35;;;;;;;30.98;20.05;;;5.40;99.90;;;;;;5079146;28;20529;-65
2024/01/05 08:41:02;;;;;;;29.67;18.15;;;5.40;99.90;;;;;;5077743;28;20578;-65
2024/01/05 08:43:27;;;;;;;31.75;17.92;;;5.30;99.90;;;;;;5081302;28;20036;-65
2024/01/05 08:45:53;;;;;;;30.15;19.17;;;5.30;99.90;;;;;;5081486;28;20808;-65
2024/01/05 08:48:19;;;;;;;28.65;18.00;;;5.30;99.90;;;;;;5084187;28;20044;-65
2024/01/05 08:50:45;;;;;;;33.15;17.75;;;5.30;99.90;;;;;;5076512;28;20467;-65
2024/01/05 08:53:11;;;;;;;30.30;18.25;;;5.30;99.90;;;;;;5080932;28;20097;-65
2024/01/05 08:55:37;;;;;;;29.50;17.98;;;5.30;99.90;;;;;;5078104;28;20044;-65
2024/01/05 08:58:04;;;;;;;30.83;18.60;;;5.30;99.90;;;;;;5080346;28;20064;-66
2024/01/05 09:00:29;;;;;;;31.33;19.17;;;5.30;99.90;;;;;;5109992;27;20051;-65
2024/01/05 09:02:55;;;;;;;32.15;18.85;;;5.30;99.90;;;;;;5076208;28;20405;-65
2024/01/05 09:05:21;;;;;;;33.95;19.75;;;5.40;99.90;;;;;;5077924;28;20043;-65
2024/01/05 09:07:48;;;;;;;33.17;18.13;;;5.40;99.90;;;;;;5077353;28;20037;-65
2024/01/05 09:10:14;;;;;;;32.22;20.15;;;5.40;99.90;;;;;;5084401;28;20395;-65
2024/01/05 09:12:40;;;;;;;31.15;19.00;;;5.40;99.90;;;;;;5061984;28;20044;-65
2024/01/05 09:15:07;;;;;;;31.98;18.08;;;5.40;99.90;;;;;;5078341;28;20426;-65
2024/01/05 09:17:33;;;;;;;29.67;18.55;;;5.40;99.90;;;;;;5080243;28;20040;-65
2024/01/05 09:19:59;;;;;;;31.52;18.98;;;5.30;99.90;;;;;;5080875;28;20055;-65
2024/01/05 09:22:25;;;;;;;32.20;19.02;;;5.40;99.90;;;;;;5081629;28;20071;-65
2024/01/05 09:24:50;;;;;;;28.48;18.50;;;5.40;99.90;;;;;;5080985;28;20162;-65
2024/01/05 09:27:16;;;;;;;32.08;18.40;;;5.60;99.90;;;;;;5079886;28;20067;-65
2024/01/05 09:29:41;;;;;;;29.50;18.85;;;5.60;99.90;;;;;;5079684;28;20131;-65
2024/01/05 09:32:07;;;;;;;35.70;20.17;;;5.60;99.90;;;;;;5078150;28;20028;-65
2024/01/05 09:34:33;;;;;;;35.97;19.55;;;5.80;99.90;;;;;;5080035;28;20169;-65
2024/01/05 09:36:58;;;;;;;32.15;19.50;;;5.60;99.90;;;;;;5079255;28;20039;-65
2024/01/05 09:39:24;;;;;;;29.98;19.80;;;5.60;99.90;;;;;;5077991;28;20416;-65
2024/01/05 09:41:50;;;;;;;36.55;18.80;;;5.60;99.90;;;;;;5079453;28;20048;-65
2024/01/05 09:44:17;;;;;;;33.92;18.58;;;5.70;99.90;;;;;;5111977;27;20040;-65
2024/01/05 09:46:44;;;;;;;31.15;19.38;;;5.70;99.90;;;;;;5080466;28;20048;-65
2024/01/05 09:49:13;;;;;;;36.90;18.63;;;5.60;99.90;;;;;;5112401;27;20060;-65
2024/01/05 09:51:39;;;;;;;33.58;18.83;;;5.70;99.90;;;;;;5087910;28;20044;-65
2024/01/05 09:54:05;;;;;;;35.35;19.20;;;5.70;99.90;;;;;;5076795;28;20478;-65
2024/01/05 09:56:31;;;;;;;33.10;17.85;;;5.70;99.90;;;;;;5081618;28;20038;-65
2024/01/05 09:58:58;;;;;;;37.65;18.40;;;5.70;99.90;;;;;;5078304;28;20039;-65
2024/01/05 10:01:25;;;;;;;31.92;17.58;;;5.80;99.90;;;;;;5107431;27;20048;-65
2024/01/05 10:04:01;;;;;;;29.83;16.05;;;5.80;99.90;;;;;;5078712;28;20073;-65
2024/01/05 10:06:28;;;;;;;;;;;5.90;99.90;;;;;;5061120;28;20044;-65
2024/01/05 10:08:58;;;;;;;31.17;16.25;;;6.00;99.90;;;;;;5079149;28;19928;-66
2024/01/05 10:11:42;;;;;;;24.70;14.38;;;6.00;99.90;;;;;;5109462;27;20489;-66
2024/01/05 10:14:11;;;;;;;22.95;14.13;;;6.00;99.90;;;;;;5079039;28;20051;-65
2024/01/05 10:16:39;;;;;;;26.30;14.43;;;6.00;99.90;;;;;;5112594;27;20040;-65
2024/01/05 10:19:15;;;;;;;23.88;14.15;;;6.10;99.90;;;;;;5078567;28;20674;-65
2024/01/05 10:21:45;;;;;;;24.13;12.52;;;6.00;99.90;;;;;;5082697;28;20043;-65
2024/01/05 10:24:21;;;;;;;18.13;10.25;;;6.10;99.90;;;;;;5075130;28;20076;-65
2024/01/05 10:26:59;;;;;;;17.25;9.07;;;6.20;99.90;;;;;;5082987;28;20072;-65
2024/01/05 10:29:25;;;;;;;17.65;8.43;;;6.20;99.90;;;;;;5118443;27;20052;-65
2024/01/05 10:31:52;;;;;;;12.57;7.03;;;6.30;99.90;;;;;;5065981;28;20501;-65
2024/01/05 10:34:17;;;;;;;14.00;7.15;;;6.30;99.90;;;;;;5118344;27;20078;-65
2024/01/05 10:36:43;;;;;;;9.70;6.35;;;6.30;99.90;;;;;;5080375;28;20055;-64
2024/01/05 10:39:09;;;;;;;12.63;5.68;;;6.30;99.90;;;;;;5086758;28;20185;-65
2024/01/05 10:41:35;;;;;;;9.50;4.65;;;6.40;99.90;;;;;;5083339;28;20086;-65
2024/01/05 10:44:03;;;;;;;10.68;6.32;;;6.40;99.90;;;;;;5074004;28;20071;-65
2024/01/05 10:46:31;;;;;;;11.68;7.28;;;6.40;99.90;;;;;;5081127;28;20047;-66
2024/01/05 10:48:57;;;;;;;14.95;9.25;;;6.40;99.90;;;;;;5073730;28;20063;-66
2024/01/05 10:51:23;;;;;;;13.82;9.65;;;6.40;99.90;;;;;;5082008;28;20020;-66
2024/01/05 10:53:49;;;;;;;19.08;10.32;;;6.40;99.90;;;;;;5074969;28;20032;-65
2024/01/05 10:56:19;;;;;;;15.85;11.00;;;6.40;99.90;;;;;;5076814;28;20064;-66
2024/01/05 10:58:48;;;;;;;19.35;11.35;;;6.40;99.90;;;;;;5080466;28;20038;-66
2024/01/05 11:01:17;;;;;;;18.65;11.23;;;6.40;99.90;;;;;;5076909;28;20133;-66
2024/01/05 11:03:44;;;;;;;15.82;10.73;;;6.40;99.90;;;;;;5079809;28;20207;-65
2024/01/05 11:06:12;;;;;;;20.70;11.38;;;6.40;99.90;;;;;;5074275;28;20081;-65
2024/01/05 11:08:52;;;;;;;22.50;11.32;;;6.30;99.90;;;;;;5080864;28;20548;-65
2024/01/05 11:11:24;;;;;;;20.52;11.05;;;6.30;99.90;;;;;;5075804;28;20040;-65
2024/01/05 11:14:14;;;;;;;14.85;9.23;;;6.30;99.90;;;;;;5078752;28;20048;-65
2024/01/05 11:16:40;;;;;;;13.65;8.43;;;6.30;99.90;;;;;;5080333;28;20044;-66
2024/01/05 11:19:43;;;;;;;14.20;7.30;;;6.40;99.90;;;;;;5077842;28;20040;-66
2024/01/05 11:22:14;;;;;;;14.90;6.70;;;6.40;99.90;;;;;;5079583;28;20040;-66
2024/01/05 11:24:40;;;;;;;10.43;6.10;;;6.50;99.90;;;;;;5076809;28;20059;-66
2024/01/05 11:27:27;;;;;;;14.23;6.47;;;6.50;99.90;;;;;;5079255;28;20364;-66
2024/01/05 11:29:53;;;;;;;11.70;6.10;;;6.40;99.90;;;;;;5079228;28;20080;-65
2024/01/05 11:32:46;;;;;;;7.90;4.90;;;6.50;99.90;;;;;;5076117;28;20047;-66
2024/01/05 11:35:15;;;;;;;6.65;2.67;;;6.50;99.90;;;;;;5071689;28;20075;-66
2024/01/05 11:37:41;;;;;;;6.20;2.75;;;6.40;99.90;;;;;;5076684;28;20074;-66
2024/01/05 11:40:07;;;;;;;5.40;1.55;;;6.50;99.90;;;;;;5081103;28;20079;-66
2024/01/05 11:42:33;;;;;;;2.72;0.60;;;6.50;99.90;;;;;;5084273;28;21780;-66
2024/01/05 11:45:01;;;;;;;2.42;0.60;;;6.60;99.90;;;;;;5080508;28;20043;-66
2024/01/05 11:47:42;;;;;;;2.78;0.50;;;6.50;99.90;;;;;;5082119;28;20040;-66
2024/01/05 11:50:24;;;;;;;3.45;0.70;;;6.50;99.90;;;;;;5079382;28;20139;-66
2024/01/05 11:53:10;;;;;;;1.65;0.60;;;6.50;99.90;;;;;;5082991;28;20044;-66
2024/01/05 11:55:40;;;;;;;1.48;0.50;;;6.50;99.90;;;;;;5081285;28;20036;-66
2024/01/05 11:58:12;;;;;;;1.90;0.35;;;6.50;99.90;;;;;;5110270;27;20056;-66
2024/01/05 12:00:40;;;;;;;1.20;0.30;;;6.50;99.90;;;;;;5082103;28;20035;-66
2024/01/05 12:03:06;;;;;;;1.63;0.50;;;6.50;99.90;;;;;;5079685;28;20070;-66
2024/01/05 12:05:31;;;;;;;2.17;0.70;;;6.50;99.90;;;;;;5080508;28;20087;-66
2024/01/05 12:07:57;;;;;;;4.95;0.70;;;6.50;99.90;;;;;;5080559;28;20047;-66
2024/01/05 12:10:24;;;;;;;2.38;0.75;;;6.50;99.90;;;;;;5076598;28;20090;-66
2024/01/05 12:12:57;;;;;;;1.48;0.60;;;6.50;99.90;;;;;;5073625;28;20036;-66
2024/01/05 12:15:23;;;;;;;2.08;0.50;;;6.50;99.90;;;;;;5078124;28;20036;-66
2024/01/05 12:17:49;;;;;;;3.08;0.82;;;6.50;99.90;;;;;;5078069;28;20037;-66
2024/01/05 12:20:17;;;;;;;4.28;0.40;;;6.50;99.90;;;;;;5078294;28;20048;-66
2024/01/05 12:22:43;;;;;;;3.90;1.02;;;6.50;99.90;;;;;;5079598;28;20047;-66
2024/01/05 12:25:09;;;;;;;1.80;0.47;;;6.50;99.90;;;;;;5080521;28;20068;-66
2024/01/05 12:27:38;;;;;;;0.98;0.20;;;6.50;99.90;;;;;;5080706;28;20539;-66
2024/01/05 12:30:09;;;;;;;0.40;0.10;;;6.40;99.90;;;;;;5083066;28;20079;-66
2024/01/05 12:32:36;;;;;;;0.75;0.30;;;6.40;99.90;;;;;;5084993;28;20048;-66
2024/01/05 12:35:03;;;;;;;1.90;0.20;;;6.40;99.90;;;;;;5084239;28;20036;-66
2024/01/05 12:37:29;;;;;;;0.77;0.20;;;6.40;99.90;;;;;;5091018;28;20035;-66
2024/01/05 12:40:05;;;;;;;1.13;0.25;;;6.50;99.90;;;;;;5084121;28;20032;-66
2024/01/05 12:42:34;;;;;;;0.30;0.10;;;6.40;99.90;;;;;;5082267;28;20097;-66